createdAt,value
2018-05-18T00:01:48.509Z,4.70
2018-05-18T00:04:16.899Z,4.40
2018-05-18T00:06:45.210Z,3.97
2018-05-18T00:09:13.521Z,4.00
2018-05-18T00:11:41.826Z,3.80
2018-05-18T00:14:10.116Z,4.53
2018-05-18T00:16:38.396Z,3.80
2018-05-18T00:19:06.672Z,4.50
2018-05-18T00:21:34.949Z,3.90
2018-05-18T00:24:03.349Z,4.50
2018-05-18T00:26:31.666Z,3.73
2018-05-18T00:28:59.960Z,4.27
2018-05-18T00:31:28.258Z,3.40
2018-05-18T00:33:56.724Z,3.60
2018-05-18T00:36:24.977Z,3.20
2018-05-18T00:38:53.268Z,3.67
2018-05-18T00:41:21.528Z,4.07
2018-05-18T00:43:49.802Z,3.70
2018-05-18T00:46:18.069Z,4.00
2018-05-18T00:48:46.341Z,3.87
2018-05-18T00:51:14.587Z,4.40
2018-05-18T00:53:43.632Z,4.13
2018-05-18T00:56:11.891Z,3.73
2018-05-18T00:58:40.158Z,4.17
2018-05-18T01:01:08.449Z,4.00
2018-05-18T01:03:36.701Z,3.60
2018-05-18T01:06:05.000Z,4.47
2018-05-18T01:08:33.310Z,3.83
2018-05-18T01:11:09.399Z,3.47
2018-05-18T01:13:37.707Z,3.93
2018-05-18T01:16:06.035Z,3.57
2018-05-18T01:18:34.331Z,3.77
2018-05-18T01:21:02.607Z,4.10
2018-05-18T01:23:30.871Z,4.23
2018-05-18T01:25:59.125Z,4.00
2018-05-18T01:28:27.371Z,4.07
2018-05-18T01:30:55.696Z,3.40
2018-05-18T01:33:23.996Z,4.57
2018-05-18T01:35:52.709Z,3.73
2018-05-18T01:38:20.968Z,4.37
2018-05-18T01:40:49.231Z,4.20
2018-05-18T01:43:17.545Z,3.80
2018-05-18T01:45:45.813Z,3.63
2018-05-18T01:48:14.107Z,3.83
2018-05-18T01:50:42.425Z,3.93
2018-05-18T01:53:10.718Z,3.90
2018-05-18T01:55:38.980Z,3.47
2018-05-18T01:58:07.273Z,4.27
2018-05-18T02:00:35.558Z,4.13
2018-05-18T02:03:03.811Z,3.80
2018-05-18T02:05:42.868Z,4.13
2018-05-18T02:11:43.614Z,3.90
2018-05-18T02:17:32.053Z,4.33
2018-05-18T02:20:22.685Z,3.57
2018-05-18T02:25:52.756Z,2.97
2018-05-18T02:31:32.429Z,3.60
2018-05-18T02:36:52.832Z,3.30
2018-05-18T02:39:30.046Z,3.80
2018-05-18T02:45:04.736Z,3.40
2018-05-18T02:47:35.795Z,3.30
2018-05-18T02:50:04.959Z,3.20
2018-05-18T02:52:33.217Z,3.40
2018-05-18T02:55:02.277Z,3.90
2018-05-18T02:57:30.548Z,3.40
2018-05-18T02:59:58.820Z,3.10
2018-05-18T03:02:27.944Z,3.60
2018-05-18T03:04:56.941Z,3.90
2018-05-18T03:07:25.219Z,3.17
2018-05-18T03:09:53.561Z,3.43
2018-05-18T03:12:22.141Z,3.60
2018-05-18T03:14:50.495Z,3.20
2018-05-18T03:17:18.750Z,3.00
2018-05-18T03:19:47.016Z,3.23
2018-05-18T03:22:16.606Z,3.37
2018-05-18T03:24:44.877Z,3.63
2018-05-18T03:27:13.141Z,3.20
2018-05-18T03:29:41.445Z,3.80
2018-05-18T03:32:09.704Z,3.53
2018-05-18T03:34:37.944Z,3.67
2018-05-18T03:37:06.230Z,3.40
2018-05-18T03:39:34.531Z,3.53
2018-05-18T03:42:02.766Z,3.30
2018-05-18T03:44:31.071Z,3.10
2018-05-18T03:46:59.333Z,3.60
2018-05-18T03:49:28.362Z,3.40
2018-05-18T03:51:57.467Z,3.90
2018-05-18T03:54:25.798Z,3.07
2018-05-18T03:56:54.036Z,3.20
2018-05-18T03:59:23.060Z,3.17
2018-05-18T04:02:09.028Z,3.40
2018-05-18T04:04:55.875Z,3.10
2018-05-18T04:10:40.403Z,3.00
2018-05-18T04:13:14.344Z,2.93
2018-05-18T04:15:42.704Z,3.33
2018-05-18T04:18:11.126Z,3.27
2018-05-18T04:20:39.773Z,3.83
2018-05-18T04:23:08.216Z,3.23
2018-05-18T04:25:42.935Z,3.20
2018-05-18T04:28:20.166Z,3.53
2018-05-18T04:30:48.828Z,3.23
2018-05-18T04:33:17.223Z,3.00
2018-05-18T04:35:46.526Z,2.90
2018-05-18T04:38:23.102Z,3.03
2018-05-18T04:41:00.244Z,2.90
2018-05-18T04:43:29.844Z,2.63
2018-05-18T04:46:18.534Z,2.83
2018-05-18T04:48:54.717Z,3.50
2018-05-18T04:51:31.712Z,2.70
2018-05-18T04:54:00.298Z,3.00
2018-05-18T04:56:29.389Z,2.80
2018-05-18T04:58:58.069Z,2.93
2018-05-18T05:01:26.457Z,3.20
2018-05-18T05:03:54.823Z,3.00
2018-05-18T05:06:23.144Z,3.30
2018-05-18T05:08:51.499Z,3.13
2018-05-18T05:11:21.692Z,3.27
2018-05-18T05:13:50.198Z,2.83
2018-05-18T05:16:19.904Z,3.17
2018-05-18T05:18:48.570Z,3.10
2018-05-18T05:21:17.021Z,3.43
2018-05-18T05:23:45.420Z,3.13
2018-05-18T05:26:14.686Z,3.07
2018-05-18T05:28:43.056Z,3.40
2018-05-18T05:31:11.480Z,3.10
2018-05-18T05:33:39.898Z,3.20
2018-05-18T05:36:08.269Z,2.83
2018-05-18T05:38:36.745Z,2.53
2018-05-18T05:41:05.142Z,2.80
2018-05-18T05:43:33.898Z,3.33
2018-05-18T05:46:02.336Z,2.90
2018-05-18T05:48:31.094Z,2.60
2018-05-18T05:50:59.652Z,3.30
2018-05-18T05:53:28.973Z,3.10
2018-05-18T05:55:57.397Z,2.63
2018-05-18T05:58:25.871Z,3.10
2018-05-18T06:00:54.218Z,3.03
2018-05-18T06:03:24.025Z,3.40
2018-05-18T06:05:52.511Z,3.87
2018-05-18T06:08:20.948Z,3.00
2018-05-18T06:10:49.388Z,3.47
2018-05-18T06:13:17.835Z,3.07
2018-05-18T06:15:46.272Z,3.60
2018-05-18T06:18:14.684Z,3.77
2018-05-18T06:20:43.838Z,3.17
2018-05-18T06:23:12.921Z,3.10
2018-05-18T06:25:41.375Z,3.77
2018-05-18T06:28:09.755Z,3.80
2018-05-18T06:30:38.097Z,3.17
2018-05-18T06:33:06.616Z,3.50
2018-05-18T06:35:36.601Z,2.90
2018-05-18T06:38:05.059Z,2.90
2018-05-18T06:40:33.494Z,3.13
2018-05-18T06:43:02.942Z,3.10
2018-05-18T06:45:32.237Z,3.93
2018-05-18T06:48:00.665Z,3.40
2018-05-18T06:50:29.101Z,3.10
2018-05-18T06:52:57.541Z,3.30
2018-05-18T06:55:26.016Z,4.17
2018-05-18T06:57:54.445Z,3.30
2018-05-18T07:00:22.892Z,3.43
2018-05-18T07:02:51.292Z,4.00
2018-05-18T07:05:19.777Z,3.43
2018-05-18T07:07:49.212Z,3.67
2018-05-18T07:10:18.614Z,4.37
2018-05-18T07:12:48.710Z,3.80
2018-05-18T07:15:17.090Z,3.53
2018-05-18T07:17:45.472Z,3.43
2018-05-18T07:20:14.594Z,4.23
2018-05-18T07:22:43.776Z,3.73
2018-05-18T07:25:12.554Z,4.03
2018-05-18T07:27:40.936Z,3.60
2018-05-18T07:30:09.344Z,4.00
2018-05-18T07:32:38.551Z,3.73
2018-05-18T07:35:06.901Z,3.83
2018-05-18T07:37:35.897Z,3.63
2018-05-18T07:40:04.376Z,3.40
2018-05-18T07:42:33.709Z,3.90
2018-05-18T07:45:02.754Z,3.70
2018-05-18T07:47:31.193Z,4.17
2018-05-18T07:49:59.763Z,4.10
2018-05-18T07:52:28.373Z,3.93
2018-05-18T07:54:57.045Z,4.07
2018-05-18T07:57:25.464Z,3.97
2018-05-18T07:59:53.829Z,4.10
2018-05-18T08:02:22.212Z,4.20
2018-05-18T08:04:50.537Z,3.77
2018-05-18T08:07:21.384Z,4.70
2018-05-18T08:09:49.718Z,4.17
2018-05-18T08:12:18.133Z,4.37
2018-05-18T08:14:47.438Z,4.60
2018-05-18T08:17:16.639Z,5.07
2018-05-18T08:19:45.047Z,4.90
2018-05-18T08:22:13.519Z,4.37
2018-05-18T08:24:42.029Z,3.73
2018-05-18T08:27:24.364Z,4.17
2018-05-18T08:29:52.837Z,4.27
2018-05-18T08:32:21.257Z,4.10
2018-05-18T08:34:50.493Z,5.20
2018-05-18T08:37:18.974Z,4.53
2018-05-18T08:39:47.876Z,3.83
2018-05-18T08:42:16.374Z,5.13
2018-05-18T08:44:44.825Z,4.90
2018-05-18T08:47:13.175Z,4.57
2018-05-18T08:49:41.518Z,4.93
2018-05-18T08:52:09.921Z,4.27
2018-05-18T08:54:38.289Z,4.63
2018-05-18T08:57:06.617Z,4.07
2018-05-18T08:59:35.815Z,5.60
2018-05-18T09:02:04.215Z,3.80
2018-05-18T09:04:32.643Z,4.53
2018-05-18T09:07:01.796Z,5.10
2018-05-18T09:09:30.223Z,4.53
2018-05-18T09:11:58.695Z,4.00
2018-05-18T09:14:27.885Z,3.83
2018-05-18T09:16:56.173Z,4.53
2018-05-18T09:19:24.537Z,4.20
2018-05-18T09:21:53.704Z,4.13
2018-05-18T09:24:22.113Z,4.47
2018-05-18T09:26:50.518Z,4.20
2018-05-18T09:29:18.944Z,4.47
2018-05-18T09:31:47.433Z,4.13
2018-05-18T09:34:15.880Z,4.37
2018-05-18T09:36:44.232Z,5.00
2018-05-18T09:39:13.755Z,4.27
2018-05-18T09:41:42.156Z,4.83
2018-05-18T09:44:10.478Z,4.50
2018-05-18T09:46:38.834Z,4.40
2018-05-18T09:49:08.070Z,5.40
2018-05-18T09:51:37.245Z,4.90
2018-05-18T09:54:07.324Z,4.27
2018-05-18T09:56:35.795Z,4.70
2018-05-18T09:59:04.219Z,4.57
2018-05-18T10:01:32.696Z,4.87
2018-05-18T10:04:01.101Z,4.87
2018-05-18T10:06:30.312Z,4.53
2018-05-18T10:08:59.573Z,5.07
2018-05-18T10:11:28.556Z,5.07
2018-05-18T10:13:56.904Z,4.63
2018-05-18T10:16:25.298Z,4.93
2018-05-18T10:18:53.615Z,4.70
2018-05-18T10:21:21.996Z,4.70
2018-05-18T10:23:50.458Z,4.47
2018-05-18T10:26:18.831Z,5.63
2018-05-18T10:28:47.421Z,5.40
2018-05-18T10:31:15.789Z,4.70
2018-05-18T10:33:44.240Z,4.47
2018-05-18T10:36:12.670Z,4.77
2018-05-18T10:38:41.088Z,5.20
2018-05-18T10:41:10.337Z,4.80
2018-05-18T10:43:38.735Z,4.30
2018-05-18T10:46:07.096Z,4.43
2018-05-18T10:48:35.506Z,4.60
2018-05-18T10:51:03.904Z,4.87
2018-05-18T10:53:32.317Z,4.30
2018-05-18T10:56:00.737Z,4.97
2018-05-18T10:58:30.169Z,4.77
2018-05-18T11:00:59.314Z,4.63
2018-05-18T11:03:27.716Z,4.60
2018-05-18T11:05:56.193Z,4.33
2018-05-18T11:08:24.574Z,4.63
2018-05-18T11:10:53.711Z,4.40
2018-05-18T11:13:22.189Z,4.13
2018-05-18T11:15:50.569Z,4.63
2018-05-18T11:18:19.051Z,4.50
2018-05-18T11:20:47.469Z,4.73
2018-05-18T11:23:15.912Z,4.77
2018-05-18T11:25:45.503Z,4.53
2018-05-18T11:28:16.526Z,4.27
2018-05-18T11:30:49.103Z,4.20
2018-05-18T11:33:19.265Z,4.63
2018-05-18T11:35:55.283Z,4.27
2018-05-18T11:38:34.843Z,4.97
2018-05-18T11:41:04.763Z,5.00
2018-05-18T11:43:47.417Z,4.90
2018-05-18T11:46:19.651Z,4.30
2018-05-18T11:48:49.063Z,4.30
2018-05-18T11:51:27.264Z,4.53
2018-05-18T11:53:57.878Z,3.80
2018-05-18T11:56:29.306Z,4.23
2018-05-18T11:58:57.919Z,4.07
2018-05-18T12:01:28.052Z,4.67
2018-05-18T12:03:59.077Z,4.13
2018-05-18T12:06:36.524Z,4.33
2018-05-18T12:15:28.456Z,5.40
2018-05-18T12:20:53.710Z,5.27
2018-05-18T12:23:22.150Z,4.80
2018-05-18T12:28:26.961Z,5.97
2018-05-18T12:30:55.293Z,4.53
2018-05-18T12:33:24.514Z,5.03
2018-05-18T12:35:52.954Z,4.80
2018-05-18T12:38:21.421Z,5.17
2018-05-18T12:40:50.698Z,5.70
2018-05-18T12:43:19.124Z,5.77
2018-05-18T12:45:48.388Z,5.73
2018-05-18T12:48:18.360Z,5.63
2018-05-18T12:50:47.882Z,5.67
2018-05-18T12:53:16.276Z,5.97
2018-05-18T12:55:45.942Z,5.23
2018-05-18T12:58:16.001Z,6.00
2018-05-18T13:00:44.504Z,6.30
2018-05-18T13:03:12.948Z,5.60
2018-05-18T13:05:41.417Z,5.50
2018-05-18T13:08:09.868Z,5.93
2018-05-18T13:10:38.341Z,5.57
2018-05-18T13:13:06.904Z,5.10
2018-05-18T13:15:35.317Z,5.63
2018-05-18T13:18:04.649Z,5.60
2018-05-18T13:20:33.133Z,5.53
2018-05-18T13:23:01.561Z,5.53
2018-05-18T13:25:30.040Z,6.10
2018-05-18T13:27:58.749Z,5.70
2018-05-18T13:30:27.206Z,5.50
2018-05-18T13:32:56.486Z,6.07
2018-05-18T13:35:24.878Z,5.83
2018-05-18T13:37:55.345Z,5.27
2018-05-18T13:40:25.043Z,5.23
2018-05-18T13:42:54.217Z,5.33
2018-05-18T13:45:22.638Z,5.77
2018-05-18T13:47:51.103Z,5.90
2018-05-18T13:50:19.547Z,5.13
2018-05-18T13:52:48.638Z,5.30
2018-05-18T13:55:17.949Z,5.43
2018-05-18T13:57:47.571Z,5.37
2018-05-18T14:00:16.829Z,5.07
2018-05-18T14:02:45.224Z,5.43
2018-05-18T14:05:13.715Z,5.60
2018-05-18T14:07:42.163Z,5.17
2018-05-18T14:10:10.539Z,5.67
2018-05-18T14:12:39.465Z,5.40
2018-05-18T14:15:07.819Z,5.90
2018-05-18T14:17:36.335Z,5.10
2018-05-18T14:20:07.349Z,5.17
2018-05-18T14:22:35.691Z,5.53
2018-05-18T14:25:04.774Z,4.97
2018-05-18T14:27:33.054Z,4.83
2018-05-18T14:30:01.361Z,5.33
2018-05-18T14:32:30.388Z,5.00
2018-05-18T14:35:09.610Z,5.47
2018-05-18T14:37:40.137Z,5.43
2018-05-18T14:40:09.077Z,4.97
2018-05-18T14:42:38.794Z,5.40
2018-05-18T14:45:07.447Z,5.50
2018-05-18T14:47:42.946Z,5.60
2018-05-18T14:59:02.090Z,5.90
2018-05-18T15:01:48.988Z,6.07
2018-05-18T15:04:18.098Z,6.50
2018-05-18T15:06:46.403Z,6.53
2018-05-18T15:09:14.699Z,6.47
2018-05-18T15:11:43.030Z,5.50
2018-05-18T15:14:11.296Z,6.03
2018-05-18T15:16:40.344Z,6.13
2018-05-18T15:19:08.651Z,5.60
2018-05-18T15:21:36.928Z,5.77
2018-05-18T15:24:05.242Z,5.40
2018-05-18T15:26:33.527Z,5.43
2018-05-18T15:29:01.811Z,5.93
2018-05-18T15:31:30.948Z,5.60
2018-05-18T15:33:59.212Z,4.73
2018-05-18T15:36:27.502Z,6.47
2018-05-18T15:38:56.101Z,5.63
2018-05-18T15:41:25.088Z,5.93
2018-05-18T15:43:53.370Z,6.27
2018-05-18T15:46:21.656Z,5.90
2018-05-18T15:48:50.665Z,5.33
2018-05-18T15:51:18.963Z,5.87
2018-05-18T15:53:47.259Z,5.83
2018-05-18T15:56:22.628Z,5.87
2018-05-18T15:58:59.222Z,6.17
2018-05-18T16:01:34.112Z,5.73
2018-05-18T16:04:02.660Z,5.40
2018-05-18T16:06:30.900Z,5.77
2018-05-18T16:08:59.168Z,6.30
2018-05-18T16:11:27.451Z,6.30
2018-05-18T16:13:56.533Z,5.83
2018-05-18T16:16:24.818Z,6.53
2018-05-18T16:18:53.109Z,6.90
2018-05-18T16:21:22.142Z,5.93
2018-05-18T16:23:50.434Z,6.47
2018-05-18T16:26:18.686Z,5.63
2018-05-18T16:28:46.969Z,6.40
2018-05-18T16:31:15.250Z,5.77
2018-05-18T16:36:56.885Z,5.93
2018-05-18T16:39:40.313Z,5.63
2018-05-18T17:06:34.967Z,5.50
2018-05-18T17:09:03.263Z,5.07
2018-05-18T17:11:31.581Z,5.37
2018-05-18T17:14:00.635Z,5.90
2018-05-18T17:16:28.961Z,5.43
2018-05-18T17:18:57.273Z,5.70
2018-05-18T17:21:25.544Z,5.70
2018-05-18T17:23:53.812Z,6.17
2018-05-18T17:26:22.075Z,6.27
2018-05-18T17:28:50.327Z,6.03
2018-05-18T17:31:19.373Z,5.77
2018-05-18T17:33:47.654Z,5.20
2018-05-18T17:36:16.595Z,5.20
2018-05-18T17:38:44.888Z,5.10
2018-05-18T17:47:27.619Z,5.80
2018-05-18T17:49:56.693Z,6.10
2018-05-18T17:52:24.934Z,6.30
2018-05-18T17:54:53.231Z,5.90
2018-05-18T18:18:23.794Z,5.10
2018-05-18T18:20:52.046Z,5.17
2018-05-18T18:23:20.355Z,5.87
2018-05-18T18:25:48.648Z,4.87
2018-05-18T18:28:16.935Z,5.80
2018-05-18T18:30:45.201Z,4.70
2018-05-18T18:33:13.499Z,5.20
2018-05-18T18:35:41.843Z,4.77
2018-05-18T18:38:10.117Z,4.93
2018-05-18T18:40:38.439Z,5.37
2018-05-18T18:43:07.457Z,4.80
2018-05-18T18:45:35.705Z,4.87
2018-05-18T18:48:04.728Z,4.80
2018-05-18T18:50:33.017Z,5.03
2018-05-18T18:53:31.123Z,4.47
2018-05-18T18:56:07.525Z,5.47
2018-05-18T18:58:43.755Z,5.10
2018-05-18T19:01:32.653Z,5.10
2018-05-18T19:04:07.868Z,4.63
2018-05-18T19:06:40.367Z,4.30
2018-05-18T19:09:14.323Z,4.77
2018-05-18T19:11:52.619Z,5.13
2018-05-18T19:14:25.581Z,4.70
2018-05-18T19:16:55.649Z,4.37
2018-05-18T19:19:29.031Z,4.60
2018-05-18T19:22:00.742Z,4.47
2018-05-18T19:24:36.008Z,4.67
2018-05-18T19:27:13.971Z,4.37
2018-05-18T19:29:50.357Z,4.53
2018-05-18T19:32:23.754Z,4.83
2018-05-18T19:35:01.408Z,4.60
2018-05-18T19:40:10.300Z,4.20
2018-05-18T19:42:41.467Z,4.70
2018-05-18T19:45:12.665Z,4.30
2018-05-18T19:47:43.156Z,4.27
2018-05-18T19:50:26.164Z,4.27
2018-05-18T19:52:56.315Z,4.33
2018-05-18T19:55:24.810Z,4.50
2018-05-18T19:57:54.089Z,4.40
2018-05-18T20:00:22.629Z,4.03
2018-05-18T20:02:51.258Z,4.23
2018-05-18T20:05:19.794Z,4.73
2018-05-18T20:07:48.405Z,4.53
2018-05-18T20:10:18.059Z,4.17
2018-05-18T20:12:47.427Z,4.53
2018-05-18T20:15:16.043Z,4.37
2018-05-18T20:17:46.110Z,4.40
2018-05-18T20:20:15.034Z,4.43
2018-05-18T20:22:44.600Z,4.27
2018-05-18T20:25:13.344Z,4.30
2018-05-18T20:27:41.840Z,4.30
2018-05-18T20:30:11.579Z,4.90
2018-05-18T20:32:40.378Z,4.60
2018-05-18T20:35:09.670Z,4.50
2018-05-18T20:37:38.692Z,5.27
2018-05-18T20:40:08.098Z,4.83
2018-05-18T20:42:39.096Z,4.07
2018-05-18T20:45:09.004Z,4.20
2018-05-18T20:47:37.897Z,5.23
2018-05-18T20:50:07.058Z,4.53
2018-05-18T20:52:35.633Z,4.73
2018-05-18T20:55:08.261Z,4.90
2018-05-18T20:57:38.408Z,4.80
2018-05-18T21:00:11.004Z,4.83
2018-05-18T21:02:41.240Z,4.73
2018-05-18T21:05:10.588Z,4.67
2018-05-18T21:07:42.833Z,4.50
2018-05-18T21:10:13.301Z,4.80
2018-05-18T21:12:43.781Z,5.10
2018-05-18T21:15:12.498Z,4.90
2018-05-18T21:17:41.198Z,4.90
2018-05-18T21:20:13.145Z,4.60
2018-05-18T21:22:42.069Z,4.87
2018-05-18T21:25:13.627Z,5.13
2018-05-18T21:27:42.270Z,4.77
2018-05-18T21:30:13.919Z,4.80
2018-05-18T21:32:42.744Z,5.30
2018-05-18T21:38:11.366Z,4.47
2018-05-18T21:40:39.709Z,5.17
2018-05-18T21:43:08.797Z,5.03
2018-05-18T21:45:37.906Z,5.07
2018-05-18T21:48:07.057Z,5.30
2018-05-18T21:50:35.390Z,4.87
2018-05-18T21:53:03.749Z,5.00
2018-05-18T21:55:32.878Z,4.60
2018-05-18T21:58:01.500Z,4.50
2018-05-18T22:00:29.908Z,5.33
2018-05-18T22:02:58.259Z,5.03
2018-05-18T22:05:28.509Z,5.10
